Time,TemperatureF,DewpointF,PressureIn,WindDirection,WindDirectionDegrees,WindSpeedMPH,WindSpeedGustMPH,Humidity,HourlyPrecipIn,Conditions,Clouds,dailyrainin,SolarRadiationWatts/m^2,SoftwareType,DateUTC
2013-06-06 00:22:00,64.0,41.0,-100.00,WNW,285,1.0,2.0,43,-99.99,,,-99.99,0.000000,,2013-06-06 07:22:00,
2013-06-06 00:30:00,63.0,41.0,-100.00,North,-999,0.0,0.0,44,-99.99,,,-99.99,0.000000,,2013-06-06 07:30:00,
2013-06-06 01:22:00,63.0,41.0,-100.00,North,-999,0.0,0.0,44,-99.99,,,-99.99,0.000000,,2013-06-06 08:22:00,
2013-06-06 02:22:00,63.0,37.0,-100.00,East,90,1.0,3.0,37,-99.99,,,-99.99,0.000000,,2013-06-06 09:22:00,
2013-06-06 04:22:00,63.0,31.0,-100.00,South,181,1.0,3.0,30,-99.99,,,-99.99,0.000000,,2013-06-06 11:22:00,
2013-06-06 05:22:00,62.0,29.0,-100.00,ENE,78,1.0,3.0,28,-99.99,,,-99.99,0.000000,,2013-06-06 12:22:00,
2013-06-06 07:22:00,64.0,24.0,-100.00,NE,34,1.0,4.0,22,-99.99,,,-99.99,37.000000,,2013-06-06 14:22:00,
2013-06-06 08:23:00,67.0,27.0,-100.00,ENE,77,3.0,6.0,22,-99.99,,,-99.99,204.000000,,2013-06-06 15:23:00,
2013-06-06 10:22:00,72.0,33.0,-100.00,ESE,105,3.0,5.0,24,-99.99,,,-99.99,516.000000,,2013-06-06 17:22:00,
2013-06-06 15:30:00,65.0,37.0,-100.00,East,86,4.0,17.0,36,-99.99,,,-99.99,37.000000,,2013-06-06 22:30:00,
2013-06-06 16:22:00,65.0,37.0,-100.00,East,86,4.0,17.0,36,-99.99,,,-99.99,37.000000,,2013-06-06 23:22:00,
2013-06-06 17:22:00,63.0,34.0,-100.00,SSW,197,2.0,8.0,33,-99.99,,,-99.99,57.000000,,2013-06-07 00:22:00,
2013-06-06 17:30:00,65.0,28.0,-100.00,North,351,1.0,2.0,24,-99.99,,,-99.99,87.000000,,2013-06-07 00:30:00,
2013-06-06 18:22:00,65.0,28.0,-100.00,North,351,1.0,2.0,24,-99.99,,,-99.99,87.000000,,2013-06-07 01:22:00,
2013-06-06 18:30:00,69.0,33.0,-100.00,SSW,193,1.0,4.0,27,-99.99,,,-99.99,199.000000,,2013-06-07 01:30:00,
2013-06-06 19:30:00,67.0,38.0,-100.00,NW,308,2.0,3.0,35,-99.99,,,-99.99,17.000000,,2013-06-07 02:30:00,
2013-06-06 20:22:00,67.0,38.0,-100.00,NW,308,2.0,3.0,35,-99.99,,,-99.99,17.000000,,2013-06-07 03:22:00,
2013-06-06 20:30:00,63.0,40.0,-100.00,NNW,346,3.0,5.0,43,-99.99,,,-99.99,3.000000,,2013-06-07 03:30:00,
2013-06-06 21:22:00,63.0,40.0,-100.00,NNW,346,3.0,5.0,43,-99.99,,,-99.99,3.000000,,2013-06-07 04:22:00,
2013-06-06 21:30:00,64.0,40.0,-100.00,NNW,345,3.0,7.0,42,-99.99,,,-99.99,0.000000,,2013-06-07 04:30:00,
2013-06-06 22:22:00,64.0,40.0,-100.00,NNW,345,3.0,7.0,42,-99.99,,,-99.99,0.000000,,2013-06-07 05:22:00,
2013-06-06 23:22:00,65.0,26.0,-100.00,North,354,5.0,9.0,23,-99.99,,,-99.99,0.000000,,2013-06-07 06:22:00,